sensor_id;sensor_type;location;lat;lon;timestamp;P1;durP1;ratioP1;P2;durP2;ratioP2
66298;SDS011;53098;47.658;8.578;2023-07-29T00:01:02;6.47;;;2.50;;
66298;SDS011;53098;47.658;8.578;2023-07-29T00:03:28;5.30;;;2.50;;
66298;SDS011;53098;47.658;8.578;2023-07-29T00:05:53;6.30;;;2.47;;
66298;SDS011;53098;47.658;8.578;2023-07-29T00:08:18;7.30;;;2.55;;
66298;SDS011;53098;47.658;8.578;2023-07-29T00:10:44;6.05;;;2.30;;
66298;SDS011;53098;47.658;8.578;2023-07-29T00:13:09;6.43;;;2.72;;
66298;SDS011;53098;47.658;8.578;2023-07-29T00:15:34;8.88;;;3.00;;
66298;SDS011;53098;47.658;8.578;2023-07-29T00:18:00;6.15;;;2.75;;
66298;SDS011;53098;47.658;8.578;2023-07-29T00:20:25;8.73;;;2.92;;
66298;SDS011;53098;47.658;8.578;2023-07-29T00:22:51;6.00;;;2.70;;
66298;SDS011;53098;47.658;8.578;2023-07-29T00:25:16;6.07;;;2.50;;
66298;SDS011;53098;47.658;8.578;2023-07-29T00:27:42;10.35;;;3.10;;
66298;SDS011;53098;47.658;8.578;2023-07-29T00:30:07;6.88;;;2.90;;
66298;SDS011;53098;47.658;8.578;2023-07-29T00:32:34;7.30;;;3.08;;
66298;SDS011;53098;47.658;8.578;2023-07-29T00:35:00;7.93;;;3.63;;
66298;SDS011;53098;47.658;8.578;2023-07-29T00:37:26;7.88;;;2.60;;
66298;SDS011;53098;47.658;8.578;2023-07-29T00:39:53;8.10;;;2.95;;
66298;SDS011;53098;47.658;8.578;2023-07-29T00:42:18;6.32;;;2.92;;
66298;SDS011;53098;47.658;8.578;2023-07-29T00:44:43;8.32;;;2.88;;
66298;SDS011;53098;47.658;8.578;2023-07-29T00:47:09;7.85;;;3.10;;
66298;SDS011;53098;47.658;8.578;2023-07-29T00:49:36;9.43;;;2.97;;
66298;SDS011;53098;47.658;8.578;2023-07-29T00:52:01;6.85;;;3.08;;
66298;SDS011;53098;47.658;8.578;2023-07-29T00:54:27;7.13;;;2.85;;
66298;SDS011;53098;47.658;8.578;2023-07-29T00:56:52;8.10;;;3.35;;
66298;SDS011;53098;47.658;8.578;2023-07-29T00:59:18;13.23;;;3.22;;
66298;SDS011;53098;47.658;8.578;2023-07-29T01:01:43;5.75;;;2.65;;
66298;SDS011;53098;47.658;8.578;2023-07-29T01:04:09;7.57;;;3.00;;
66298;SDS011;53098;47.658;8.578;2023-07-29T01:09:12;8.77;;;3.00;;
66298;SDS011;53098;47.658;8.578;2023-07-29T01:12:05;8.90;;;3.25;;
66298;SDS011;53098;47.658;8.578;2023-07-29T01:14:59;7.63;;;3.58;;
66298;SDS011;53098;47.658;8.578;2023-07-29T01:17:54;6.55;;;2.90;;
66298;SDS011;53098;47.658;8.578;2023-07-29T01:20:19;6.78;;;3.00;;
66298;SDS011;53098;47.658;8.578;2023-07-29T01:22:45;11.18;;;2.50;;
66298;SDS011;53098;47.658;8.578;2023-07-29T01:25:11;9.15;;;2.85;;
66298;SDS011;53098;47.658;8.578;2023-07-29T01:27:36;7.68;;;2.75;;
66298;SDS011;53098;47.658;8.578;2023-07-29T01:30:02;6.95;;;2.53;;
66298;SDS011;53098;47.658;8.578;2023-07-29T01:35:02;6.90;;;2.63;;
66298;SDS011;53098;47.658;8.578;2023-07-29T01:37:33;9.27;;;2.92;;
66298;SDS011;53098;47.658;8.578;2023-07-29T01:40:00;8.73;;;3.05;;
66298;SDS011;53098;47.658;8.578;2023-07-29T01:42:26;6.22;;;3.08;;
66298;SDS011;53098;47.658;8.578;2023-07-29T01:44:52;10.70;;;3.00;;
66298;SDS011;53098;47.658;8.578;2023-07-29T01:47:18;6.38;;;2.50;;
66298;SDS011;53098;47.658;8.578;2023-07-29T01:49:43;6.68;;;2.45;;
66298;SDS011;53098;47.658;8.578;2023-07-29T01:52:09;7.00;;;2.85;;
66298;SDS011;53098;47.658;8.578;2023-07-29T01:54:34;6.93;;;3.30;;
66298;SDS011;53098;47.658;8.578;2023-07-29T01:57:00;9.25;;;3.20;;
66298;SDS011;53098;47.658;8.578;2023-07-29T01:59:25;6.90;;;3.03;;
66298;SDS011;53098;47.658;8.578;2023-07-29T02:01:51;8.73;;;3.25;;
66298;SDS011;53098;47.658;8.578;2023-07-29T02:04:16;9.55;;;3.17;;
66298;SDS011;53098;47.658;8.578;2023-07-29T02:06:41;12.40;;;3.08;;
66298;SDS011;53098;47.658;8.578;2023-07-29T02:09:07;10.45;;;3.75;;
66298;SDS011;53098;47.658;8.578;2023-07-29T02:11:32;9.93;;;2.92;;
66298;SDS011;53098;47.658;8.578;2023-07-29T02:13:58;8.25;;;2.92;;
66298;SDS011;53098;47.658;8.578;2023-07-29T02:16:23;7.72;;;3.15;;
66298;SDS011;53098;47.658;8.578;2023-07-29T02:18:49;9.93;;;3.38;;
66298;SDS011;53098;47.658;8.578;2023-07-29T02:21:14;9.90;;;3.35;;
66298;SDS011;53098;47.658;8.578;2023-07-29T02:23:40;9.80;;;2.90;;
66298;SDS011;53098;47.658;8.578;2023-07-29T02:26:05;6.43;;;3.00;;
66298;SDS011;53098;47.658;8.578;2023-07-29T02:28:31;7.68;;;3.10;;
66298;SDS011;53098;47.658;8.578;2023-07-29T02:31:09;6.63;;;2.92;;
66298;SDS011;53098;47.658;8.578;2023-07-29T02:33:39;8.63;;;3.00;;
66298;SDS011;53098;47.658;8.578;2023-07-29T02:36:04;7.18;;;3.10;;
66298;SDS011;53098;47.658;8.578;2023-07-29T02:38:30;6.00;;;2.65;;
66298;SDS011;53098;47.658;8.578;2023-07-29T02:40:55;6.53;;;3.20;;
66298;SDS011;53098;47.658;8.578;2023-07-29T02:43:21;8.98;;;2.97;;
66298;SDS011;53098;47.658;8.578;2023-07-29T02:45:46;6.47;;;2.83;;
66298;SDS011;53098;47.658;8.578;2023-07-29T02:48:12;7.47;;;3.10;;
66298;SDS011;53098;47.658;8.578;2023-07-29T02:50:37;7.30;;;2.97;;
66298;SDS011;53098;47.658;8.578;2023-07-29T02:53:03;8.02;;;3.25;;
66298;SDS011;53098;47.658;8.578;2023-07-29T02:55:28;6.05;;;3.10;;
66298;SDS011;53098;47.658;8.578;2023-07-29T02:57:54;9.32;;;3.42;;
66298;SDS011;53098;47.658;8.578;2023-07-29T03:00:19;8.27;;;3.40;;
66298;SDS011;53098;47.658;8.578;2023-07-29T03:02:44;9.77;;;3.63;;
66298;SDS011;53098;47.658;8.578;2023-07-29T03:05:10;9.10;;;3.10;;
66298;SDS011;53098;47.658;8.578;2023-07-29T03:07:35;8.23;;;3.15;;
66298;SDS011;53098;47.658;8.578;2023-07-29T03:10:01;9.02;;;2.67;;
66298;SDS011;53098;47.658;8.578;2023-07-29T03:12:26;8.38;;;2.80;;
66298;SDS011;53098;47.658;8.578;2023-07-29T03:14:52;8.30;;;3.00;;
66298;SDS011;53098;47.658;8.578;2023-07-29T03:17:17;6.15;;;2.75;;
66298;SDS011;53098;47.658;8.578;2023-07-29T03:19:43;14.05;;;3.55;;
66298;SDS011;53098;47.658;8.578;2023-07-29T03:22:08;10.90;;;3.30;;
66298;SDS011;53098;47.658;8.578;2023-07-29T03:24:34;9.32;;;3.10;;
66298;SDS011;53098;47.658;8.578;2023-07-29T03:26:59;13.65;;;4.57;;
66298;SDS011;53098;47.658;8.578;2023-07-29T03:29:24;7.28;;;3.55;;
66298;SDS011;53098;47.658;8.578;2023-07-29T03:31:50;9.60;;;3.88;;
66298;SDS011;53098;47.658;8.578;2023-07-29T03:34:15;9.00;;;4.00;;
66298;SDS011;53098;47.658;8.578;2023-07-29T03:36:41;12.18;;;3.58;;
66298;SDS011;53098;47.658;8.578;2023-07-29T03:39:06;6.90;;;3.40;;
66298;SDS011;53098;47.658;8.578;2023-07-29T03:41:32;9.15;;;3.90;;
66298;SDS011;53098;47.658;8.578;2023-07-29T03:43:57;8.85;;;3.63;;
66298;SDS011;53098;47.658;8.578;2023-07-29T03:46:23;7.75;;;3.47;;
66298;SDS011;53098;47.658;8.578;2023-07-29T03:48:48;13.90;;;3.53;;
66298;SDS011;53098;47.658;8.578;2023-07-29T03:51:13;7.10;;;3.28;;
66298;SDS011;53098;47.658;8.578;2023-07-29T03:53:39;11.18;;;4.18;;
66298;SDS011;53098;47.658;8.578;2023-07-29T03:56:04;7.97;;;3.45;;
66298;SDS011;53098;47.658;8.578;2023-07-29T03:58:30;11.57;;;3.60;;
66298;SDS011;53098;47.658;8.578;2023-07-29T04:00:55;8.10;;;3.45;;
66298;SDS011;53098;47.658;8.578;2023-07-29T04:03:21;8.45;;;2.92;;
66298;SDS011;53098;47.658;8.578;2023-07-29T04:05:46;9.27;;;3.13;;
66298;SDS011;53098;47.658;8.578;2023-07-29T04:08:12;9.35;;;3.67;;
66298;SDS011;53098;47.658;8.578;2023-07-29T04:10:37;8.23;;;3.72;;
66298;SDS011;53098;47.658;8.578;2023-07-29T04:13:03;9.95;;;3.00;;
66298;SDS011;53098;47.658;8.578;2023-07-29T04:15:28;10.65;;;3.30;;
66298;SDS011;53098;47.658;8.578;2023-07-29T04:17:54;7.88;;;3.55;;
66298;SDS011;53098;47.658;8.578;2023-07-29T04:20:19;8.23;;;3.50;;
66298;SDS011;53098;47.658;8.578;2023-07-29T04:22:44;8.10;;;3.38;;
66298;SDS011;53098;47.658;8.578;2023-07-29T04:25:10;7.10;;;3.17;;
66298;SDS011;53098;47.658;8.578;2023-07-29T04:27:35;8.95;;;3.28;;
66298;SDS011;53098;47.658;8.578;2023-07-29T04:30:01;8.10;;;3.80;;
66298;SDS011;53098;47.658;8.578;2023-07-29T04:32:26;9.30;;;3.70;;
66298;SDS011;53098;47.658;8.578;2023-07-29T04:34:52;10.02;;;3.53;;
66298;SDS011;53098;47.658;8.578;2023-07-29T04:37:17;7.63;;;3.47;;
66298;SDS011;53098;47.658;8.578;2023-07-29T04:39:43;9.18;;;3.13;;
66298;SDS011;53098;47.658;8.578;2023-07-29T04:42:08;10.48;;;3.47;;
66298;SDS011;53098;47.658;8.578;2023-07-29T04:44:34;7.82;;;3.63;;
66298;SDS011;53098;47.658;8.578;2023-07-29T04:46:59;9.05;;;3.50;;
66298;SDS011;53098;47.658;8.578;2023-07-29T04:49:25;13.30;;;4.97;;
66298;SDS011;53098;47.658;8.578;2023-07-29T04:51:50;10.90;;;4.22;;
66298;SDS011;53098;47.658;8.578;2023-07-29T04:54:15;8.68;;;3.97;;
66298;SDS011;53098;47.658;8.578;2023-07-29T04:56:41;9.45;;;4.40;;
66298;SDS011;53098;47.658;8.578;2023-07-29T04:59:06;17.70;;;4.93;;
66298;SDS011;53098;47.658;8.578;2023-07-29T05:01:32;9.60;;;4.43;;
66298;SDS011;53098;47.658;8.578;2023-07-29T05:03:57;11.27;;;4.13;;
66298;SDS011;53098;47.658;8.578;2023-07-29T05:06:22;8.27;;;3.67;;
66298;SDS011;53098;47.658;8.578;2023-07-29T05:08:48;10.43;;;4.13;;
66298;SDS011;53098;47.658;8.578;2023-07-29T05:11:13;8.43;;;3.53;;
66298;SDS011;53098;47.658;8.578;2023-07-29T05:13:39;7.57;;;2.92;;
66298;SDS011;53098;47.658;8.578;2023-07-29T05:16:04;6.40;;;3.03;;
66298;SDS011;53098;47.658;8.578;2023-07-29T05:18:30;8.95;;;3.75;;
66298;SDS011;53098;47.658;8.578;2023-07-29T05:20:55;7.10;;;3.33;;
66298;SDS011;53098;47.658;8.578;2023-07-29T05:23:20;7.80;;;3.70;;
66298;SDS011;53098;47.658;8.578;2023-07-29T05:25:46;8.60;;;3.50;;
66298;SDS011;53098;47.658;8.578;2023-07-29T05:28:11;9.85;;;3.92;;
66298;SDS011;53098;47.658;8.578;2023-07-29T05:30:37;8.38;;;3.75;;
66298;SDS011;53098;47.658;8.578;2023-07-29T05:33:05;10.07;;;3.80;;
66298;SDS011;53098;47.658;8.578;2023-07-29T05:35:31;8.35;;;3.67;;
66298;SDS011;53098;47.658;8.578;2023-07-29T05:37:56;7.82;;;4.15;;
66298;SDS011;53098;47.658;8.578;2023-07-29T05:40:22;11.10;;;3.60;;
66298;SDS011;53098;47.658;8.578;2023-07-29T05:42:47;11.32;;;3.67;;
66298;SDS011;53098;47.658;8.578;2023-07-29T05:45:13;7.68;;;3.50;;
66298;SDS011;53098;47.658;8.578;2023-07-29T05:47:38;8.25;;;3.75;;
66298;SDS011;53098;47.658;8.578;2023-07-29T05:50:04;8.80;;;4.38;;
66298;SDS011;53098;47.658;8.578;2023-07-29T05:52:30;7.78;;;3.60;;
66298;SDS011;53098;47.658;8.578;2023-07-29T05:54:56;7.72;;;3.40;;
66298;SDS011;53098;47.658;8.578;2023-07-29T05:57:22;6.85;;;3.33;;
66298;SDS011;53098;47.658;8.578;2023-07-29T05:59:47;10.05;;;4.25;;
66298;SDS011;53098;47.658;8.578;2023-07-29T06:02:13;11.05;;;4.45;;
66298;SDS011;53098;47.658;8.578;2023-07-29T06:04:38;8.55;;;4.03;;
66298;SDS011;53098;47.658;8.578;2023-07-29T06:07:04;9.27;;;4.28;;
66298;SDS011;53098;47.658;8.578;2023-07-29T06:09:30;9.98;;;3.88;;
66298;SDS011;53098;47.658;8.578;2023-07-29T06:11:56;8.40;;;4.05;;
66298;SDS011;53098;47.658;8.578;2023-07-29T06:14:21;8.55;;;4.13;;
66298;SDS011;53098;47.658;8.578;2023-07-29T06:16:47;9.05;;;4.07;;
66298;SDS011;53098;47.658;8.578;2023-07-29T06:19:12;9.50;;;3.80;;
66298;SDS011;53098;47.658;8.578;2023-07-29T06:21:37;8.35;;;4.05;;
66298;SDS011;53098;47.658;8.578;2023-07-29T06:24:03;8.13;;;3.58;;
66298;SDS011;53098;47.658;8.578;2023-07-29T06:26:29;8.68;;;3.50;;
66298;SDS011;53098;47.658;8.578;2023-07-29T06:28:54;9.30;;;3.75;;
66298;SDS011;53098;47.658;8.578;2023-07-29T06:31:20;9.90;;;3.95;;
66298;SDS011;53098;47.658;8.578;2023-07-29T06:33:45;10.63;;;4.05;;
66298;SDS011;53098;47.658;8.578;2023-07-29T06:36:11;9.85;;;3.88;;
66298;SDS011;53098;47.658;8.578;2023-07-29T06:38:37;8.25;;;3.40;;
66298;SDS011;53098;47.658;8.578;2023-07-29T06:41:02;8.80;;;3.50;;
66298;SDS011;53098;47.658;8.578;2023-07-29T06:43:28;7.88;;;3.70;;
66298;SDS011;53098;47.658;8.578;2023-07-29T06:45:53;7.13;;;3.42;;
66298;SDS011;53098;47.658;8.578;2023-07-29T06:48:19;8.50;;;3.70;;
66298;SDS011;53098;47.658;8.578;2023-07-29T06:50:44;9.52;;;3.75;;
66298;SDS011;53098;47.658;8.578;2023-07-29T06:53:10;11.27;;;3.65;;
66298;SDS011;53098;47.658;8.578;2023-07-29T06:55:35;6.60;;;3.40;;
66298;SDS011;53098;47.658;8.578;2023-07-29T06:58:01;7.47;;;3.22;;
66298;SDS011;53098;47.658;8.578;2023-07-29T07:00:26;9.43;;;4.13;;
66298;SDS011;53098;47.658;8.578;2023-07-29T07:02:52;9.30;;;3.60;;
66298;SDS011;53098;47.658;8.578;2023-07-29T07:05:17;9.73;;;3.78;;
66298;SDS011;53098;47.658;8.578;2023-07-29T07:07:42;8.93;;;3.60;;
66298;SDS011;53098;47.658;8.578;2023-07-29T07:10:08;7.85;;;3.53;;
66298;SDS011;53098;47.658;8.578;2023-07-29T07:12:34;8.65;;;3.75;;
66298;SDS011;53098;47.658;8.578;2023-07-29T07:15:00;7.20;;;3.42;;
66298;SDS011;53098;47.658;8.578;2023-07-29T07:17:25;7.47;;;3.53;;
66298;SDS011;53098;47.658;8.578;2023-07-29T07:19:51;8.15;;;3.33;;
66298;SDS011;53098;47.658;8.578;2023-07-29T07:22:16;8.50;;;3.55;;
66298;SDS011;53098;47.658;8.578;2023-07-29T07:24:42;6.38;;;2.90;;
66298;SDS011;53098;47.658;8.578;2023-07-29T07:27:08;7.15;;;3.40;;
66298;SDS011;53098;47.658;8.578;2023-07-29T07:29:33;6.95;;;3.63;;
66298;SDS011;53098;47.658;8.578;2023-07-29T07:31:59;8.70;;;3.78;;
66298;SDS011;53098;47.658;8.578;2023-07-29T07:34:24;7.38;;;3.65;;
66298;SDS011;53098;47.658;8.578;2023-07-29T07:36:50;8.43;;;3.85;;
66298;SDS011;53098;47.658;8.578;2023-07-29T07:39:16;8.85;;;3.75;;
66298;SDS011;53098;47.658;8.578;2023-07-29T07:41:41;9.55;;;3.88;;
66298;SDS011;53098;47.658;8.578;2023-07-29T07:44:07;6.38;;;3.50;;
66298;SDS011;53098;47.658;8.578;2023-07-29T07:46:33;8.57;;;3.08;;
66298;SDS011;53098;47.658;8.578;2023-07-29T07:48:59;9.77;;;3.40;;
66298;SDS011;53098;47.658;8.578;2023-07-29T07:51:26;8.20;;;3.08;;
66298;SDS011;53098;47.658;8.578;2023-07-29T07:53:55;8.65;;;3.65;;
66298;SDS011;53098;47.658;8.578;2023-07-29T07:56:20;7.38;;;3.50;;
66298;SDS011;53098;47.658;8.578;2023-07-29T07:58:46;6.53;;;3.28;;
66298;SDS011;53098;47.658;8.578;2023-07-29T08:01:11;6.68;;;3.33;;
66298;SDS011;53098;47.658;8.578;2023-07-29T08:03:37;9.88;;;3.22;;
66298;SDS011;53098;47.658;8.578;2023-07-29T08:06:02;6.28;;;2.75;;
66298;SDS011;53098;47.658;8.578;2023-07-29T08:08:28;8.45;;;3.15;;
66298;SDS011;53098;47.658;8.578;2023-07-29T08:10:54;6.90;;;3.90;;
66298;SDS011;53098;47.658;8.578;2023-07-29T08:13:21;7.35;;;3.30;;
66298;SDS011;53098;47.658;8.578;2023-07-29T08:15:47;8.55;;;3.10;;
66298;SDS011;53098;47.658;8.578;2023-07-29T08:18:14;9.00;;;3.70;;
66298;SDS011;53098;47.658;8.578;2023-07-29T08:20:40;7.97;;;3.90;;
66298;SDS011;53098;47.658;8.578;2023-07-29T08:23:06;7.75;;;3.30;;
66298;SDS011;53098;47.658;8.578;2023-07-29T08:25:31;8.13;;;3.30;;
66298;SDS011;53098;47.658;8.578;2023-07-29T08:27:57;6.85;;;3.35;;
66298;SDS011;53098;47.658;8.578;2023-07-29T08:30:23;8.52;;;3.70;;
66298;SDS011;53098;47.658;8.578;2023-07-29T08:32:48;7.57;;;3.30;;
66298;SDS011;53098;47.658;8.578;2023-07-29T08:35:14;7.97;;;3.35;;
66298;SDS011;53098;47.658;8.578;2023-07-29T08:37:39;6.95;;;3.03;;
66298;SDS011;53098;47.658;8.578;2023-07-29T08:40:05;7.50;;;3.25;;
66298;SDS011;53098;47.658;8.578;2023-07-29T08:42:32;8.25;;;3.15;;
66298;SDS011;53098;47.658;8.578;2023-07-29T08:45:01;8.15;;;3.13;;
66298;SDS011;53098;47.658;8.578;2023-07-29T08:47:32;9.32;;;3.85;;
66298;SDS011;53098;47.658;8.578;2023-07-29T08:49:57;7.30;;;2.80;;
66298;SDS011;53098;47.658;8.578;2023-07-29T08:52:26;6.97;;;3.05;;
66298;SDS011;53098;47.658;8.578;2023-07-29T08:54:54;6.38;;;2.85;;
66298;SDS011;53098;47.658;8.578;2023-07-29T08:57:20;7.47;;;3.00;;
66298;SDS011;53098;47.658;8.578;2023-07-29T08:59:46;9.68;;;3.10;;
66298;SDS011;53098;47.658;8.578;2023-07-29T09:02:12;6.45;;;2.97;;
66298;SDS011;53098;47.658;8.578;2023-07-29T09:04:37;6.97;;;2.95;;
66298;SDS011;53098;47.658;8.578;2023-07-29T09:07:03;5.70;;;2.35;;
66298;SDS011;53098;47.658;8.578;2023-07-29T09:09:30;8.30;;;2.40;;
66298;SDS011;53098;47.658;8.578;2023-07-29T09:11:56;5.15;;;1.90;;
66298;SDS011;53098;47.658;8.578;2023-07-29T09:14:21;4.57;;;2.17;;
66298;SDS011;53098;47.658;8.578;2023-07-29T09:16:49;4.30;;;2.00;;
66298;SDS011;53098;47.658;8.578;2023-07-29T09:19:14;5.50;;;2.20;;
66298;SDS011;53098;47.658;8.578;2023-07-29T09:21:40;5.97;;;2.00;;
66298;SDS011;53098;47.658;8.578;2023-07-29T09:24:06;6.18;;;2.53;;
66298;SDS011;53098;47.658;8.578;2023-07-29T09:26:33;6.72;;;2.13;;
66298;SDS011;53098;47.658;8.578;2023-07-29T09:28:58;4.80;;;2.13;;
66298;SDS011;53098;47.658;8.578;2023-07-29T09:31:25;6.18;;;2.10;;
66298;SDS011;53098;47.658;8.578;2023-07-29T09:33:58;5.85;;;2.00;;
66298;SDS011;53098;47.658;8.578;2023-07-29T09:36:25;4.57;;;1.95;;
66298;SDS011;53098;47.658;8.578;2023-07-29T09:38:54;5.40;;;2.35;;
66298;SDS011;53098;47.658;8.578;2023-07-29T09:41:24;4.78;;;2.00;;
66298;SDS011;53098;47.658;8.578;2023-07-29T09:43:58;4.05;;;1.90;;
66298;SDS011;53098;47.658;8.578;2023-07-29T09:46:25;6.32;;;2.10;;
66298;SDS011;53098;47.658;8.578;2023-07-29T09:48:58;8.55;;;1.92;;
66298;SDS011;53098;47.658;8.578;2023-07-29T09:51:24;7.70;;;2.20;;
66298;SDS011;53098;47.658;8.578;2023-07-29T09:53:50;5.15;;;2.20;;
66298;SDS011;53098;47.658;8.578;2023-07-29T09:56:16;4.82;;;2.17;;
66298;SDS011;53098;47.658;8.578;2023-07-29T09:58:43;5.63;;;2.10;;
66298;SDS011;53098;47.658;8.578;2023-07-29T10:01:09;5.50;;;2.22;;
66298;SDS011;53098;47.658;8.578;2023-07-29T10:03:35;5.60;;;2.50;;
66298;SDS011;53098;47.658;8.578;2023-07-29T10:06:02;5.90;;;2.05;;
66298;SDS011;53098;47.658;8.578;2023-07-29T10:08:29;5.88;;;1.92;;
66298;SDS011;53098;47.658;8.578;2023-07-29T10:10:55;7.90;;;2.50;;
66298;SDS011;53098;47.658;8.578;2023-07-29T10:13:21;5.53;;;2.10;;
66298;SDS011;53098;47.658;8.578;2023-07-29T10:15:47;5.25;;;2.03;;
66298;SDS011;53098;47.658;8.578;2023-07-29T10:18:13;5.38;;;1.85;;
66298;SDS011;53098;47.658;8.578;2023-07-29T10:20:41;5.68;;;2.00;;
66298;SDS011;53098;47.658;8.578;2023-07-29T10:23:08;5.30;;;1.92;;
66298;SDS011;53098;47.658;8.578;2023-07-29T10:25:37;5.05;;;2.08;;
66298;SDS011;53098;47.658;8.578;2023-07-29T10:28:07;5.70;;;2.60;;
66298;SDS011;53098;47.658;8.578;2023-07-29T10:30:33;4.47;;;2.08;;
66298;SDS011;53098;47.658;8.578;2023-07-29T10:33:03;4.57;;;1.83;;
66298;SDS011;53098;47.658;8.578;2023-07-29T10:35:29;7.22;;;2.10;;
66298;SDS011;53098;47.658;8.578;2023-07-29T10:37:55;4.13;;;1.90;;
66298;SDS011;53098;47.658;8.578;2023-07-29T10:40:21;5.13;;;2.22;;
66298;SDS011;53098;47.658;8.578;2023-07-29T10:43:32;5.68;;;2.00;;
66298;SDS011;53098;47.658;8.578;2023-07-29T10:45:36;4.20;;;1.83;;
66298;SDS011;53098;47.658;8.578;2023-07-29T10:48:12;4.32;;;2.20;;
66298;SDS011;53098;47.658;8.578;2023-07-29T10:54:04;5.00;;;2.10;;
66298;SDS011;53098;47.658;8.578;2023-07-29T10:56:35;5.85;;;2.00;;
66298;SDS011;53098;47.658;8.578;2023-07-29T11:01:37;4.53;;;1.90;;
66298;SDS011;53098;47.658;8.578;2023-07-29T11:15:22;4.65;;;1.85;;
66298;SDS011;53098;47.658;8.578;2023-07-29T11:20:20;5.55;;;2.10;;
66298;SDS011;53098;47.658;8.578;2023-07-29T11:22:47;5.03;;;2.25;;
66298;SDS011;53098;47.658;8.578;2023-07-29T11:25:14;4.78;;;1.92;;
66298;SDS011;53098;47.658;8.578;2023-07-29T11:27:40;5.75;;;2.17;;
66298;SDS011;53098;47.658;8.578;2023-07-29T11:30:07;4.07;;;1.63;;
66298;SDS011;53098;47.658;8.578;2023-07-29T11:32:34;3.90;;;1.90;;
66298;SDS011;53098;47.658;8.578;2023-07-29T11:37:29;4.35;;;1.88;;
66298;SDS011;53098;47.658;8.578;2023-07-29T11:39:54;5.38;;;1.77;;
66298;SDS011;53098;47.658;8.578;2023-07-29T11:42:20;5.75;;;2.60;;
66298;SDS011;53098;47.658;8.578;2023-07-29T11:44:45;6.30;;;2.63;;
66298;SDS011;53098;47.658;8.578;2023-07-29T11:47:11;5.97;;;2.03;;
66298;SDS011;53098;47.658;8.578;2023-07-29T11:49:38;6.13;;;2.22;;
66298;SDS011;53098;47.658;8.578;2023-07-29T11:52:08;6.95;;;2.80;;
66298;SDS011;53098;47.658;8.578;2023-07-29T11:54:35;7.57;;;2.10;;
66298;SDS011;53098;47.658;8.578;2023-07-29T11:57:06;5.95;;;2.05;;
66298;SDS011;53098;47.658;8.578;2023-07-29T11:59:35;7.43;;;2.10;;
66298;SDS011;53098;47.658;8.578;2023-07-29T12:02:01;5.80;;;2.20;;
66298;SDS011;53098;47.658;8.578;2023-07-29T12:04:30;6.65;;;2.53;;
66298;SDS011;53098;47.658;8.578;2023-07-29T12:06:56;5.95;;;2.35;;
66298;SDS011;53098;47.658;8.578;2023-07-29T12:09:22;4.95;;;2.00;;
66298;SDS011;53098;47.658;8.578;2023-07-29T12:11:48;4.22;;;2.08;;
66298;SDS011;53098;47.658;8.578;2023-07-29T12:14:15;5.03;;;2.10;;
66298;SDS011;53098;47.658;8.578;2023-07-29T12:16:44;4.47;;;1.90;;
66298;SDS011;53098;47.658;8.578;2023-07-29T12:19:13;4.45;;;1.95;;
66298;SDS011;53098;47.658;8.578;2023-07-29T12:21:40;4.63;;;1.77;;
66298;SDS011;53098;47.658;8.578;2023-07-29T12:24:07;6.55;;;1.90;;
66298;SDS011;53098;47.658;8.578;2023-07-29T12:26:32;4.50;;;1.70;;
66298;SDS011;53098;47.658;8.578;2023-07-29T12:28:58;3.92;;;1.83;;
66298;SDS011;53098;47.658;8.578;2023-07-29T12:31:32;4.22;;;1.70;;
66298;SDS011;53098;47.658;8.578;2023-07-29T12:33:58;4.72;;;1.80;;
66298;SDS011;53098;47.658;8.578;2023-07-29T12:36:45;6.47;;;1.55;;
66298;SDS011;53098;47.658;8.578;2023-07-29T12:39:17;3.70;;;1.73;;
66298;SDS011;53098;47.658;8.578;2023-07-29T12:41:53;3.90;;;1.58;;
66298;SDS011;53098;47.658;8.578;2023-07-29T12:44:20;6.57;;;2.17;;
66298;SDS011;53098;47.658;8.578;2023-07-29T12:46:45;4.65;;;1.88;;
66298;SDS011;53098;47.658;8.578;2023-07-29T12:49:11;4.95;;;2.17;;
66298;SDS011;53098;47.658;8.578;2023-07-29T12:51:37;5.68;;;2.08;;
66298;SDS011;53098;47.658;8.578;2023-07-29T12:54:03;4.35;;;1.90;;
66298;SDS011;53098;47.658;8.578;2023-07-29T12:56:30;5.13;;;1.67;;
66298;SDS011;53098;47.658;8.578;2023-07-29T12:58:55;5.18;;;1.70;;
66298;SDS011;53098;47.658;8.578;2023-07-29T13:01:21;5.70;;;2.00;;
66298;SDS011;53098;47.658;8.578;2023-07-29T13:03:47;2.85;;;1.50;;
66298;SDS011;53098;47.658;8.578;2023-07-29T13:06:13;2.97;;;1.30;;
66298;SDS011;53098;47.658;8.578;2023-07-29T13:08:39;5.18;;;1.70;;
66298;SDS011;53098;47.658;8.578;2023-07-29T13:11:05;14.25;;;2.97;;
66298;SDS011;53098;47.658;8.578;2023-07-29T13:13:30;8.13;;;2.00;;
66298;SDS011;53098;47.658;8.578;2023-07-29T13:15:56;5.03;;;1.35;;
66298;SDS011;53098;47.658;8.578;2023-07-29T13:18:22;4.05;;;1.20;;
66298;SDS011;53098;47.658;8.578;2023-07-29T13:20:48;3.42;;;1.20;;
66298;SDS011;53098;47.658;8.578;2023-07-29T13:23:13;4.28;;;1.13;;
66298;SDS011;53098;47.658;8.578;2023-07-29T13:25:39;5.70;;;1.40;;
66298;SDS011;53098;47.658;8.578;2023-07-29T13:28:05;4.57;;;1.40;;
66298;SDS011;53098;47.658;8.578;2023-07-29T13:30:30;8.57;;;1.58;;
66298;SDS011;53098;47.658;8.578;2023-07-29T13:32:56;5.88;;;1.30;;
66298;SDS011;53098;47.658;8.578;2023-07-29T13:35:21;7.25;;;1.55;;
66298;SDS011;53098;47.658;8.578;2023-07-29T13:37:47;5.70;;;1.63;;
66298;SDS011;53098;47.658;8.578;2023-07-29T13:40:12;7.88;;;1.55;;
66298;SDS011;53098;47.658;8.578;2023-07-29T13:42:38;6.97;;;1.80;;
66298;SDS011;53098;47.658;8.578;2023-07-29T13:45:04;4.18;;;1.50;;
66298;SDS011;53098;47.658;8.578;2023-07-29T13:47:29;4.95;;;1.80;;
66298;SDS011;53098;47.658;8.578;2023-07-29T13:49:55;7.70;;;2.47;;
66298;SDS011;53098;47.658;8.578;2023-07-29T13:52:20;6.60;;;2.20;;
66298;SDS011;53098;47.658;8.578;2023-07-29T13:54:46;5.63;;;2.40;;
66298;SDS011;53098;47.658;8.578;2023-07-29T13:57:11;9.70;;;2.67;;
66298;SDS011;53098;47.658;8.578;2023-07-29T13:59:36;5.60;;;2.22;;
66298;SDS011;53098;47.658;8.578;2023-07-29T14:02:02;6.15;;;2.53;;
66298;SDS011;53098;47.658;8.578;2023-07-29T14:04:28;8.60;;;2.70;;
66298;SDS011;53098;47.658;8.578;2023-07-29T14:06:53;6.22;;;2.30;;
66298;SDS011;53098;47.658;8.578;2023-07-29T14:09:19;8.57;;;2.65;;
66298;SDS011;53098;47.658;8.578;2023-07-29T14:11:44;6.80;;;3.10;;
66298;SDS011;53098;47.658;8.578;2023-07-29T14:14:09;5.22;;;2.35;;
66298;SDS011;53098;47.658;8.578;2023-07-29T14:16:35;9.50;;;3.30;;
66298;SDS011;53098;47.658;8.578;2023-07-29T14:19:00;9.65;;;5.38;;
66298;SDS011;53098;47.658;8.578;2023-07-29T14:21:26;6.68;;;3.35;;
66298;SDS011;53098;47.658;8.578;2023-07-29T14:23:51;10.70;;;5.15;;
66298;SDS011;53098;47.658;8.578;2023-07-29T14:26:17;13.38;;;8.43;;
66298;SDS011;53098;47.658;8.578;2023-07-29T14:28:42;8.63;;;4.70;;
66298;SDS011;53098;47.658;8.578;2023-07-29T14:31:07;11.40;;;5.45;;
66298;SDS011;53098;47.658;8.578;2023-07-29T14:33:33;7.78;;;4.03;;
66298;SDS011;53098;47.658;8.578;2023-07-29T14:35:58;7.75;;;3.28;;
66298;SDS011;53098;47.658;8.578;2023-07-29T14:38:24;8.82;;;4.63;;
66298;SDS011;53098;47.658;8.578;2023-07-29T14:40:49;10.10;;;6.10;;
66298;SDS011;53098;47.658;8.578;2023-07-29T14:43:15;9.23;;;4.47;;
66298;SDS011;53098;47.658;8.578;2023-07-29T14:45:40;9.82;;;5.07;;
66298;SDS011;53098;47.658;8.578;2023-07-29T14:48:06;6.80;;;3.30;;
66298;SDS011;53098;47.658;8.578;2023-07-29T14:50:31;5.40;;;2.58;;
66298;SDS011;53098;47.658;8.578;2023-07-29T14:52:56;7.18;;;2.70;;
66298;SDS011;53098;47.658;8.578;2023-07-29T14:55:22;6.75;;;3.00;;
66298;SDS011;53098;47.658;8.578;2023-07-29T14:57:47;6.47;;;2.72;;
66298;SDS011;53098;47.658;8.578;2023-07-29T15:00:13;7.15;;;2.55;;
66298;SDS011;53098;47.658;8.578;2023-07-29T15:02:39;5.82;;;2.50;;
66298;SDS011;53098;47.658;8.578;2023-07-29T15:05:06;6.15;;;2.80;;
66298;SDS011;53098;47.658;8.578;2023-07-29T15:07:31;5.93;;;2.50;;